• Join FlightAware (Why Join?)
  • Login
  • US Flag 
05:26PM EDT


 

Airport Tracker/Info


-or-


 

Live Flight TrackerFlight Track Log ✈ SWA1197 ✈ 09-Jul-2013 ✈ KPHX - KPDX

Flight Track Log - Related Links

Times and Time Zones

All times are in EDT time to prevent confusion due to time zone crossing. See the SWA1197 flight status page for this flight to view local times or setup timezone preferences in your user account.

Time Position Orientation Groundspeed Altitude Reporting Facility
EDT Latitude Longitude Course Direction KTS MPH feet Rate Location/Type
12:08PM 33.4333 -112.0333 270° West 155 178 1,900  Level Phoenix TRACON
12:09PM 33.4333 -112.0833 270° West 190 219 3,500 2,100 Climbing Phoenix TRACON
12:10PM 33.4333 -112.1667 270° West 260 299 6,000 2,340 Climbing Phoenix TRACON
12:11PM 33.4689 -112.2033 319° Northwest 292 336 7,900 2,700 Climbing Albuquerque Center
12:12PM 33.5614 -112.1822 11° North 285 328 11,100 2,820 Climbing Albuquerque Center
12:13PM 33.6422 -112.1186 33° Northeast 333 383 13,800 2,460 Climbing Albuquerque Center
12:14PM 33.7161 -112.0483 38° Northeast 351 404 16,300 2,280 Climbing Albuquerque Center
12:15PM 33.7986 -111.9706 38° Northeast 373 429 18,600 2,340 Climbing Albuquerque Center
12:16PM 33.8933 -111.8800 38° Northeast 386 444 21,200 2,340 Climbing Albuquerque Center
12:17PM 34.0133 -111.8706 North 413 475 23,500 1,980 Climbing Albuquerque Center
12:18PM 34.1322 -111.8858 354° North 426 490 25,400 1,740 Climbing Albuquerque Center
12:19PM 34.2625 -111.9056 353° North 438 504 27,200 1,620 Climbing Albuquerque Center
12:20PM 34.3889 -111.9236 353° North 452 520 28,800 1,440 Climbing Albuquerque Center
12:21PM 34.5167 -111.9414 353° North 459 528 30,200 1,440 Climbing Albuquerque Center
12:22PM 34.6475 -111.9594 354° North 467 537 31,900 1,320 Climbing Albuquerque Center
12:23PM 34.7803 -111.9781 353° North 470 541 33,000 480 Climbing Albuquerque Center
12:24PM 34.9075 -111.9953 354° North 466 536 33,000  Level Albuquerque Center
12:25PM 35.0361 -112.0142 353° North 467 537 33,000 60 Level Albuquerque Center
12:26PM 35.1903 -112.0344 354° North 469 540 33,200 480 Climbing Albuquerque Center
12:27PM 35.3169 -112.0528 353° North 466 536 34,000 360 Climbing Albuquerque Center
12:28PM 35.4453 -112.0714 353° North 468 539 34,000  Level Los Angeles Center
12:29PM 35.5736 -112.0889 354° North 469 540 34,000  Level Los Angeles Center
12:30PM 35.7264 -112.1111 353° North 466 536 34,000  Level Los Angeles Center
12:31PM 35.8542 -112.1314 353° North 468 539 34,000  Level Los Angeles Center
12:32PM 35.9667 -112.2053 332° Northwest 465 535 34,000  Level Los Angeles Center
12:33PM 36.0814 -112.2919 329° Northwest 457 526 34,100 720 Climbing Los Angeles Center
12:35PM 36.1903 -112.3733 329° Northwest 458 527 35,600 1,380 Climbing Los Angeles Center
12:36PM 36.2969 -112.4553 328° Northwest 454 522 37,000 1,140 Climbing Los Angeles Center
12:37PM 36.4264 -112.5519 329° Northwest 452 520 38,000 480 Climbing Los Angeles Center
12:38PM 36.5336 -112.6353 328° Northwest 452 520 38,000  Level Los Angeles Center
12:39PM 36.6414 -112.7178 328° Northwest 454 522 38,000  Level Los Angeles Center
12:40PM 36.7497 -112.8008 328° Northwest 456 525 38,000  Level Los Angeles Center
12:41PM 36.8575 -112.8847 328° Northwest 453 521 38,000  Level Los Angeles Center
12:42PM 36.9664 -112.9689 328° Northwest 457 526 38,000  Level Los Angeles Center
12:43PM 37.0731 -113.0525 328° Northwest 451 519 38,000  Level Los Angeles Center
12:44PM 37.2022 -113.1542 328° Northwest 452 520 38,000  Level Los Angeles Center
12:45PM 37.3103 -113.2392 328° Northwest 454 522 38,000  Level Los Angeles Center
12:46PM 37.4183 -113.3253 328° Northwest 455 524 38,000  Level Los Angeles Center
12:47PM 37.5467 -113.4269 328° Northwest 453 521 38,000  Level Los Angeles Center
12:48PM 37.6111 -113.4781 328° Northwest 452 520 38,000  Level Los Angeles Center
12:48PM 37.6767 -113.5278 329° Northwest 453 521 38,000  Level Salt Lake Center
12:49PM 37.8056 -113.6278 328° Northwest 451 519 38,000  Level Salt Lake Center
12:50PM 37.8700 -113.6783 328° Northwest 451 519 38,000  Level Los Angeles Center
12:51PM 37.9561 -113.7456 328° Northwest 452 520 38,000  Level Los Angeles Center
12:52PM 38.0189 -113.7958 328° Northwest 450 518 38,000  Level Salt Lake Center
12:53PM 38.1250 -113.8797 328° Northwest 448 516 38,000  Level Salt Lake Center
12:54PM 38.2325 -113.9639 328° Northwest 452 520 38,000  Level Salt Lake Center
12:55PM 38.3381 -114.0481 328° Northwest 448 516 38,000  Level Salt Lake Center
12:56PM 38.4656 -114.1489 328° Northwest 450 518 38,000  Level Salt Lake Center
12:57PM 38.5703 -114.2339 328° Northwest 447 514 38,000  Level Salt Lake Center
12:58PM 38.6753 -114.3169 328° Northwest 443 510 38,000  Level Salt Lake Center
12:59PM 38.7800 -114.4014 328° Northwest 443 510 38,000  Level Salt Lake Center
01:00PM 38.8847 -114.4875 327° Northwest 446 513 38,000  Level Salt Lake Center
01:01PM 38.9903 -114.5739 328° Northwest 448 516 38,000  Level Salt Lake Center
01:02PM 39.1169 -114.6764 328° Northwest 449 517 38,000  Level Salt Lake Center
01:03PM 39.2225 -114.7675 326° Northwest 449 517 38,000  Level Salt Lake Center
01:04PM 39.3247 -114.8514 328° Northwest 452 520 38,000  Level Salt Lake Center
01:05PM 39.4256 -114.9342 328° Northwest 449 517 38,000  Level Salt Lake Center
01:06PM 39.5472 -115.0311 328° Northwest 456 525 38,000  Level Salt Lake Center
01:07PM 39.6492 -115.1158 327° Northwest 455 524 38,000  Level Salt Lake Center
01:08PM 39.7664 -115.2156 327° Northwest 453 521 38,000  Level Salt Lake Center
01:09PM 39.8675 -115.2986 328° Northwest 450 518 38,000  Level Salt Lake Center
01:10PM 39.9831 -115.3975 327° Northwest 446 513 38,000  Level Salt Lake Center
01:11PM 40.0825 -115.4811 327° Northwest 444 511 38,000  Level Salt Lake Center
01:12PM 40.1989 -115.5792 327° Northwest 445 512 38,000  Level Salt Lake Center
01:13PM 40.2983 -115.6639 327° Northwest 445 512 38,000  Level Salt Lake Center
01:14PM 40.4142 -115.7636 327° Northwest 447 514 38,000  Level Salt Lake Center
01:15PM 40.5108 -115.8500 326° Northwest 444 511 38,000  Level Salt Lake Center
01:16PM 40.6267 -115.9483 327° Northwest 443 510 38,000  Level Salt Lake Center
01:17PM 40.7267 -116.0333 327° Northwest 448 516 38,000  Level Salt Lake Center
01:18PM 40.8431 -116.1353 326° Northwest 452 520 38,000  Level Salt Lake Center
01:19PM 40.9400 -116.2208 326° Northwest 443 510 38,000  Level Salt Lake Center
01:20PM 41.0578 -116.3247 326° Northwest 455 524 38,000  Level Salt Lake Center
01:22PM 41.1564 -116.4119 326° Northwest 451 519 38,000  Level Salt Lake Center
01:23PM 41.2700 -116.5128 326° Northwest 443 510 38,000  Level Salt Lake Center
01:24PM 41.3692 -116.6000 327° Northwest 445 512 38,000  Level Salt Lake Center
01:25PM 41.4669 -116.6886 326° Northwest 446 513 38,000  Level Salt Lake Center
01:26PM 41.5811 -116.7903 326° Northwest 443 510 38,000  Level Salt Lake Center
01:27PM 41.6792 -116.8772 326° Northwest 443 510 38,000  Level Salt Lake Center
01:28PM 41.7944 -116.9792 327° Northwest 444 511 38,000  Level Salt Lake Center
01:29PM 41.8928 -117.0692 326° Northwest 446 513 38,000  Level Salt Lake Center
01:30PM 42.0069 -117.1739 326° Northwest 446 513 38,000  Level Salt Lake Center
01:31PM 42.1056 -117.2636 326° Northwest 447 514 38,000  Level Salt Lake Center
01:32PM 42.2197 -117.3689 326° Northwest 446 513 38,000  Level Salt Lake Center
01:33PM 42.3222 -117.4631 326° Northwest 445 512 38,000  Level Salt Lake Center
01:34PM 42.4194 -117.5550 325° Northwest 445 512 38,000  Level Salt Lake Center
01:35PM 42.5342 -117.6592 326° Northwest 443 510 38,000  Level Salt Lake Center
01:36PM 42.6300 -117.7492 325° Northwest 439 505 38,000  Level Salt Lake Center
01:37PM 42.7428 -117.8544 326° Northwest 438 504 38,000  Level Salt Lake Center
01:38PM 42.8397 -117.9458 325° Northwest 442 509 38,000  Level Salt Lake Center
01:39PM 42.9522 -118.0517 325° Northwest 438 504 38,000  Level Salt Lake Center
01:40PM 43.0481 -118.1450 325° Northwest 441 507 38,000  Level Salt Lake Center
01:41PM 43.1400 -118.2467 321° Northwest 442 509 38,000  Level Salt Lake Center
01:42PM 43.2328 -118.3497 321° Northwest 434 499 38,000  Level Salt Lake Center
01:43PM 43.3475 -118.4747 322° Northwest 439 505 38,000  Level Salt Lake Center
01:44PM 43.4408 -118.5786 321° Northwest 433 498 38,000  Level Salt Lake Center
01:45PM 43.5342 -118.6822 321° Northwest 433 498 38,000  Level Salt Lake Center
01:46PM 43.6275 -118.7869 321° Northwest 432 497 38,000  Level Salt Lake Center
01:47PM 43.7194 -118.8914 321° Northwest 431 496 38,000  Level Salt Lake Center
01:48PM 43.7733 -118.9550 320° Northwest 431 496 38,000  Level Seattle Center
01:49PM 43.8581 -119.0708 315° West 432 497 38,000  Level Seattle Center
01:50PM 43.9461 -119.1831 317° Northwest 430 495 38,000  Level Seattle Center
01:51PM 44.0331 -119.2978 317° Northwest 432 497 38,000 -60 Level Seattle Center
01:52PM 44.1194 -119.4125 316° Northwest 431 496 37,900 -540 Descending Seattle Center
01:53PM 44.2072 -119.5275 317° Northwest 432 497 36,900 -1,080 Descending Seattle Center
01:54PM 44.3111 -119.6678 316° Northwest 433 498 35,700 -1,080 Descending Seattle Center
01:55PM 44.3978 -119.7836 316° Northwest 432 497 34,800 -960 Descending Seattle Center
01:56PM 44.4853 -119.9014 316° Northwest 435 501 33,800 -960 Descending Seattle Center
01:57PM 44.5733 -120.0200 316° Northwest 436 502 32,900 -900 Descending Seattle Center
01:58PM 44.6631 -120.1414 316° Northwest 444 511 32,000 -480 Descending Seattle Center
01:59PM 44.7528 -120.2639 316° Northwest 445 512 32,000  Level Seattle Center
02:00PM 44.8428 -120.3875 316° Northwest 447 514 32,000  Level Seattle Center
02:01PM 44.9333 -120.5122 316° Northwest 449 517 32,000 -300 Level Seattle Center
02:02PM 45.0228 -120.6353 316° Northwest 448 516 31,400 -1,440 Descending Seattle Center
02:03PM 45.1103 -120.7569 316° Northwest 441 507 29,100 -2,340 Descending Seattle Center
02:04PM 45.1933 -120.8731 315° West 423 487 26,700 -2,340 Descending Seattle Center
02:05PM 45.2742 -120.9858 316° Northwest 410 472 24,400 -2,460 Descending Seattle Center
02:06PM 45.3661 -121.1156 315° West 391 450 21,800 -2,400 Descending Seattle Center
02:07PM 45.4311 -121.2286 309° West 372 428 19,600 -2,280 Descending Seattle Center
02:08PM 45.4492 -121.3708 280° West 359 413 17,200 -2,220 Descending Seattle Center
02:09PM 45.4656 -121.5083 280° West 355 409 15,100 -2,040 Descending Seattle Center
02:10PM 45.4819 -121.6397 280° West 338 389 13,100 -2,040 Descending Seattle Center
02:11PM 45.4953 -121.7692 278° West 331 381 11,000 -1,620 Descending Seattle Center
02:12PM 45.4997 -121.8883 273° West 300 345 9,900 -1,440 Descending Seattle Center
02:13PM 45.5000 -122.0022 270° West 280 322 8,100 -1,800 Descending Seattle Center
02:14PM 45.5022 -122.1081 272° West 272 313 6,300 -1,560 Descending Seattle Center
02:15PM 45.5069 -122.2178 274° West 275 316 5,000 -1,260 Descending Seattle Center
02:16PM 45.5086 -122.3217 271° West 271 312 3,800 -1,320 Descending Seattle Center
02:18PM 45.5178 -122.4258 277° West 242 278 2,300 -1,200 Descending Seattle Center
02:19PM 45.5431 -122.4903 299° West 210 242 1,400 -840 Descending Seattle Center
02:20PM 45.5647 -122.5411 301° West 182 209 700 -540 Descending Seattle Center
02:21PM 45.5847 -122.5897 300° West 173 199 400 -300 Descending Seattle Center